Time;durP1;ratioP1;P1;durP2;ratioP2;P2;SDS_P1;SDS_P2;PMS_P1;PMS_P2;Temp;Humidity;BMP_temperature;BMP_pressure;BME280_temperature;BME280_humidity;BME280_pressure;Samples;Min_cycle;Max_cycle;Signal;HPM_P1;HPM_P2
2023/01/06 00:01:43;;;;;;;;;19.75;18.50;;;;;;;;116481;1203;24709;-62
2023/01/06 00:04:11;;;;;;;;;16.00;16.00;;;;;;;;116514;1204;24897;-62
2023/01/06 00:06:40;;;;;;;;;18.00;16.25;;;;;;;;116409;1200;25459;-62
2023/01/06 00:09:08;;;;;;;;;17.00;15.00;;;;;;;;116486;1203;25087;-62
2023/01/06 00:11:37;;;;;;;;;22.50;17.00;;;;;;;;116487;1205;25135;-62
2023/01/06 00:14:05;;;;;;;;;19.00;16.00;;;;;;;;116395;1211;24866;-62
2023/01/06 00:16:35;;;;;;;;;17.50;14.00;;;;;;;;116392;1199;25127;-62
2023/01/06 00:19:03;;;;;;;;;18.50;16.50;;;;;;;;116378;1198;24921;-62
2023/01/06 00:21:31;;;;;;;;;16.00;14.00;;;;;;;;116489;1206;25375;-62
2023/01/06 00:24:00;;;;;;;;;17.00;16.00;;;;;;;;116491;1204;24987;-62
2023/01/06 00:26:28;;;;;;;;;18.00;16.00;;;;;;;;116481;1200;25181;-62
2023/01/06 00:28:56;;;;;;;;;19.50;17.00;;;;;;;;116420;1211;25277;-63
2023/01/06 00:31:25;;;;;;;;;18.00;16.00;;;;;;;;116506;1202;25119;-63
2023/01/06 00:33:57;;;;;;;;;16.50;15.00;;;;;;;;116412;1203;25171;-63
2023/01/06 00:36:25;;;;;;;;;23.67;17.00;;;;;;;;116385;1209;25133;-63
2023/01/06 00:38:53;;;;;;;;;17.50;14.50;;;;;;;;116355;1209;25028;-63
2023/01/06 00:44:09;;;;;;;;;14.00;14.00;;;;;;;;116397;1203;25193;-63
2023/01/06 00:46:37;;;;;;;;;17.00;15.00;;;;;;;;116353;1203;25612;-63
2023/01/06 00:49:06;;;;;;;;;15.00;14.00;;;;;;;;116372;1199;24793;-63
2023/01/06 00:51:38;;;;;;;;;15.00;15.00;;;;;;;;116362;1208;25658;-63
2023/01/06 00:54:08;;;;;;;;;16.50;16.00;;;;;;;;116424;1203;25590;-63
2023/01/06 00:56:37;;;;;;;;;20.00;15.00;;;;;;;;116388;1205;25510;-63
2023/01/06 00:59:05;;;;;;;;;15.00;14.00;;;;;;;;116391;1200;24954;-63
2023/01/06 01:01:34;;;;;;;;;11.00;10.50;;;;;;;;116506;1199;25255;-63
2023/01/06 01:04:03;;;;;;;;;18.00;14.00;;;;;;;;116400;1199;25671;-64
2023/01/06 01:06:32;;;;;;;;;20.00;15.00;;;;;;;;116508;1199;25262;-63
2023/01/06 01:09:00;;;;;;;;;7.50;4.00;;;;;;;;116425;1211;24960;-64
2023/01/06 01:14:18;;;;;;;;;16.00;15.00;;;;;;;;116407;1198;25560;-63
2023/01/06 01:16:47;;;;;;;;;13.00;12.00;;;;;;;;116388;1206;25528;-63
2023/01/06 01:19:15;;;;;;;;;20.00;11.00;;;;;;;;116402;1208;25596;-63
2023/01/06 01:21:44;;;;;;;;;17.50;14.00;;;;;;;;116360;1208;25216;-63
2023/01/06 01:24:12;;;;;;;;;16.50;14.00;;;;;;;;116358;1211;25404;-63
2023/01/06 01:26:40;;;;;;;;;16.00;13.00;;;;;;;;116347;1206;25448;-63
2023/01/06 01:29:13;;;;;;;;;15.00;14.00;;;;;;;;116508;1200;25331;-63
2023/01/06 01:31:42;;;;;;;;;14.00;12.00;;;;;;;;116352;1200;24928;-63
2023/01/06 01:34:12;;;;;;;;;11.50;11.00;;;;;;;;116370;1198;25466;-63
2023/01/06 01:36:41;;;;;;;;;15.00;12.00;;;;;;;;116363;1211;25521;-63
2023/01/06 01:39:11;;;;;;;;;15.50;14.50;;;;;;;;116402;1209;25015;-63
2023/01/06 01:41:40;;;;;;;;;14.00;13.00;;;;;;;;116336;1211;25302;-63
2023/01/06 01:44:45;;;;;;;;;15.50;13.00;;;;;;;;116402;1211;24743;-63
2023/01/06 01:47:21;;;;;;;;;16.00;11.50;;;;;;;;116379;1209;24979;-63
2023/01/06 01:49:53;;;;;;;;;15.00;13.00;;;;;;;;116380;1204;24894;-63
2023/01/06 01:52:22;;;;;;;;;10.00;10.00;;;;;;;;116373;1199;25526;-63
2023/01/06 01:54:52;;;;;;;;;12.00;12.00;;;;;;;;116409;1211;25370;-63
2023/01/06 01:57:43;;;;;;;;;9.00;8.33;;;;;;;;116382;1205;24774;-63
2023/01/06 02:00:12;;;;;;;;;13.00;9.50;;;;;;;;116425;1204;25030;-63
2023/01/06 02:02:41;;;;;;;;;16.00;13.00;;;;;;;;116450;1198;25587;-63
2023/01/06 02:05:12;;;;;;;;;14.00;12.00;;;;;;;;116420;1200;25561;-64
2023/01/06 02:07:41;;;;;;;;;12.00;10.67;;;;;;;;116403;1198;25211;-63
2023/01/06 02:10:16;;;;;;;;;13.00;11.00;;;;;;;;116487;1199;24802;-63
2023/01/06 02:12:47;;;;;;;;;12.00;11.00;;;;;;;;116366;1206;24984;-63
2023/01/06 02:15:23;;;;;;;;;13.50;11.00;;;;;;;;116414;1206;24929;-63
2023/01/06 02:18:04;;;;;;;;;12.00;10.50;;;;;;;;116388;1203;24819;-63
2023/01/06 02:21:23;;;;;;;;;13.50;11.50;;;;;;;;116448;1199;24779;-63
2023/01/06 02:24:16;;;;;;;;;12.00;11.00;;;;;;;;116314;1202;25349;-63
2023/01/06 02:26:56;;;;;;;;;14.50;12.50;;;;;;;;116420;1203;25627;-63
2023/01/06 02:29:55;;;;;;;;;7.00;6.00;;;;;;;;116499;1202;25049;-63
2023/01/06 02:32:47;;;;;;;;;12.00;11.00;;;;;;;;116491;1206;25462;-63
2023/01/06 02:35:36;;;;;;;;;11.33;9.67;;;;;;;;116423;1208;25298;-62
2023/01/06 02:38:27;;;;;;;;;10.00;10.00;;;;;;;;116406;1205;25522;-63
2023/01/06 02:41:12;;;;;;;;;10.00;10.00;;;;;;;;116394;1208;25028;-63
2023/01/06 02:44:14;;;;;;;;;10.00;9.00;;;;;;;;116425;1203;25357;-63
2023/01/06 02:46:52;;;;;;;;;14.00;10.00;;;;;;;;116532;1206;24821;-63
2023/01/06 02:49:53;;;;;;;;;13.50;10.50;;;;;;;;116486;1199;25588;-64
2023/01/06 02:52:42;;;;;;;;;14.00;11.50;;;;;;;;116390;1206;25338;-64
2023/01/06 02:55:16;;;;;;;;;11.00;10.00;;;;;;;;116374;1203;25230;-63
2023/01/06 02:58:10;;;;;;;;;12.50;9.50;;;;;;;;116371;1199;24992;-63
2023/01/06 03:01:12;;;;;;;;;11.00;6.00;;;;;;;;116330;1204;25451;-64
2023/01/06 03:03:44;;;;;;;;;12.00;11.00;;;;;;;;116330;1211;24912;-64
2023/01/06 03:06:18;;;;;;;;;15.00;12.50;;;;;;;;116400;1202;25029;-63
2023/01/06 03:08:48;;;;;;;;;13.00;11.00;;;;;;;;116401;1199;25081;-63
2023/01/06 03:11:16;;;;;;;;;17.00;12.00;;;;;;;;116405;1199;25550;-63
2023/01/06 03:13:57;;;;;;;;;8.50;8.50;;;;;;;;116417;1203;24883;-63
2023/01/06 03:16:25;;;;;;;;;8.00;7.00;;;;;;;;116435;1205;25609;-63
2023/01/06 03:18:54;;;;;;;;;8.00;8.00;;;;;;;;116395;1208;25347;-64
2023/01/06 03:21:32;;;;;;;;;12.00;10.50;;;;;;;;116363;1201;24921;-63
2023/01/06 03:24:00;;;;;;;;;11.50;9.50;;;;;;;;116406;1196;25339;-64
2023/01/06 03:26:29;;;;;;;;;8.00;8.00;;;;;;;;116385;1199;25529;-63
2023/01/06 03:28:58;;;;;;;;;11.00;10.00;;;;;;;;116410;1202;25184;-63
2023/01/06 03:31:34;;;;;;;;;12.00;10.00;;;;;;;;116377;1206;25020;-64
2023/01/06 03:34:20;;;;;;;;;10.33;8.67;;;;;;;;116359;1202;24662;-63
2023/01/06 03:37:15;;;;;;;;;8.50;8.50;;;;;;;;116388;1203;24851;-63
2023/01/06 03:39:52;;;;;;;;;8.00;8.00;;;;;;;;116490;1203;25438;-63
2023/01/06 03:45:28;;;;;;;;;9.00;7.50;;;;;;;;116467;1203;25634;-64
2023/01/06 03:48:06;;;;;;;;;11.00;9.00;;;;;;;;116491;1205;25602;-64
2023/01/06 03:50:41;;;;;;;;;8.50;8.50;;;;;;;;116375;1211;25119;-63
2023/01/06 03:53:15;;;;;;;;;9.00;9.00;;;;;;;;116464;1203;24889;-63
2023/01/06 03:55:47;;;;;;;;;15.00;10.00;;;;;;;;116492;1209;25623;-62
2023/01/06 03:58:15;;;;;;;;;;;;;;;;;;116375;1211;24700;-64
2023/01/06 04:00:44;;;;;;;;;7.00;6.00;;;;;;;;116354;1211;24822;-64
2023/01/06 04:03:13;;;;;;;;;9.00;7.00;;;;;;;;116479;1196;25531;-63
2023/01/06 04:05:41;;;;;;;;;9.33;8.00;;;;;;;;116382;1206;24856;-63
2023/01/06 04:08:09;;;;;;;;;10.00;8.00;;;;;;;;116507;1200;24904;-63
2023/01/06 04:10:38;;;;;;;;;10.00;9.00;;;;;;;;116501;1199;24968;-63
2023/01/06 04:13:06;;;;;;;;;6.33;5.00;;;;;;;;116755;1197;25397;-63
2023/01/06 04:15:34;;;;;;;;;10.00;9.00;;;;;;;;116386;1204;24784;-63
2023/01/06 04:18:02;;;;;;;;;9.00;9.00;;;;;;;;116375;1200;25713;-63
2023/01/06 04:20:31;;;;;;;;;7.00;7.00;;;;;;;;116516;1200;25089;-63
2023/01/06 04:22:59;;;;;;;;;9.33;7.33;;;;;;;;116394;1211;25025;-62
2023/01/06 04:25:27;;;;;;;;;8.00;7.00;;;;;;;;116508;1206;25204;-63
2023/01/06 04:27:55;;;;;;;;;8.50;8.00;;;;;;;;116465;1200;25150;-63
2023/01/06 04:30:24;;;;;;;;;9.50;7.50;;;;;;;;116407;1199;25107;-63
2023/01/06 04:32:52;;;;;;;;;8.00;6.50;;;;;;;;116381;1200;24962;-63
2023/01/06 04:35:20;;;;;;;;;7.00;7.00;;;;;;;;116428;1209;25397;-63
2023/01/06 04:37:48;;;;;;;;;9.00;9.00;;;;;;;;116518;1200;24929;-63
2023/01/06 04:40:17;;;;;;;;;9.00;7.00;;;;;;;;116482;1198;25621;-63
2023/01/06 04:43:03;;;;;;;;;7.00;7.00;;;;;;;;116483;1199;25276;-63
2023/01/06 04:45:33;;;;;;;;;8.00;6.00;;;;;;;;116376;1200;25307;-63
2023/01/06 04:48:01;;;;;;;;;7.00;7.00;;;;;;;;116365;1203;25047;-63
2023/01/06 04:50:29;;;;;;;;;;;;;;;;;;116497;1203;25293;-63
2023/01/06 04:52:58;;;;;;;;;6.00;6.00;;;;;;;;116393;1206;25616;-63
2023/01/06 04:55:26;;;;;;;;;9.00;7.50;;;;;;;;116496;1209;25365;-63
2023/01/06 04:57:54;;;;;;;;;9.00;7.00;;;;;;;;116428;1211;25404;-63
2023/01/06 05:00:23;;;;;;;;;10.00;7.50;;;;;;;;116380;1210;24971;-63
2023/01/06 05:02:51;;;;;;;;;5.00;5.00;;;;;;;;116376;1203;25368;-63
2023/01/06 05:05:20;;;;;;;;;9.00;5.00;;;;;;;;116476;1202;24841;-63
2023/01/06 05:07:48;;;;;;;;;9.00;7.00;;;;;;;;116389;1203;24958;-63
2023/01/06 05:10:16;;;;;;;;;8.50;8.50;;;;;;;;116515;1209;24780;-63
2023/01/06 05:12:44;;;;;;;;;6.00;5.00;;;;;;;;116779;1204;25211;-63
2023/01/06 05:15:13;;;;;;;;;10.50;8.50;;;;;;;;116396;1200;25041;-63
2023/01/06 05:17:41;;;;;;;;;7.00;7.00;;;;;;;;116784;1190;24953;-62
2023/01/06 05:20:10;;;;;;;;;7.00;6.00;;;;;;;;116507;1203;24977;-63
2023/01/06 05:22:38;;;;;;;;;6.00;6.00;;;;;;;;116507;1203;25143;-63
2023/01/06 05:25:06;;;;;;;;;8.00;7.00;;;;;;;;116376;1206;25719;-63
2023/01/06 05:27:35;;;;;;;;;9.50;7.00;;;;;;;;116472;1202;25260;-63
2023/01/06 05:30:04;;;;;;;;;5.00;5.00;;;;;;;;116479;1203;25680;-63
2023/01/06 05:32:32;;;;;;;;;7.50;7.50;;;;;;;;116504;1203;25056;-63
2023/01/06 05:35:00;;;;;;;;;7.50;7.50;;;;;;;;116528;1207;25277;-63
2023/01/06 05:37:28;;;;;;;;;7.00;7.00;;;;;;;;116490;1209;25237;-63
2023/01/06 05:39:56;;;;;;;;;6.00;4.50;;;;;;;;116490;1203;25149;-63
2023/01/06 05:42:25;;;;;;;;;7.00;7.00;;;;;;;;116506;1200;25276;-62
2023/01/06 05:44:53;;;;;;;;;8.00;6.00;;;;;;;;116366;1206;25585;-63
2023/01/06 05:47:21;;;;;;;;;6.00;6.00;;;;;;;;116618;1197;24783;-63
2023/01/06 05:49:49;;;;;;;;;5.00;5.00;;;;;;;;116478;1203;25359;-63
2023/01/06 05:52:18;;;;;;;;;10.00;7.00;;;;;;;;116485;1206;24984;-63
2023/01/06 05:54:46;;;;;;;;;6.50;6.00;;;;;;;;116486;1202;24844;-64
2023/01/06 05:57:14;;;;;;;;;7.00;6.00;;;;;;;;116514;1206;25603;-64
2023/01/06 05:59:42;;;;;;;;;5.50;5.50;;;;;;;;116384;1207;25285;-64
2023/01/06 06:02:11;;;;;;;;;6.00;5.00;;;;;;;;116524;1198;25613;-63
2023/01/06 06:04:39;;;;;;;;;6.00;4.00;;;;;;;;116485;1203;25652;-64
2023/01/06 06:07:07;;;;;;;;;7.00;6.00;;;;;;;;116525;1198;24892;-63
2023/01/06 06:09:36;;;;;;;;;5.00;4.00;;;;;;;;116391;1200;25437;-63
2023/01/06 06:12:04;;;;;;;;;6.00;6.00;;;;;;;;116388;1203;25469;-64
2023/01/06 06:14:32;;;;;;;;;7.00;7.00;;;;;;;;116525;1205;24725;-63
2023/01/06 06:17:00;;;;;;;;;7.00;6.00;;;;;;;;116373;1202;24979;-63
2023/01/06 06:19:29;;;;;;;;;8.00;7.00;;;;;;;;116521;1209;25488;-63
2023/01/06 06:21:57;;;;;;;;;8.00;6.00;;;;;;;;116480;1209;25078;-64
2023/01/06 06:24:25;;;;;;;;;7.00;6.00;;;;;;;;116506;1198;25435;-63
2023/01/06 06:26:53;;;;;;;;;8.00;6.00;;;;;;;;116518;1202;25642;-64
2023/01/06 06:29:21;;;;;;;;;5.00;4.00;;;;;;;;116471;1206;24768;-63
2023/01/06 06:31:50;;;;;;;;;6.00;6.00;;;;;;;;116419;1203;24969;-63
2023/01/06 06:34:18;;;;;;;;;7.00;5.00;;;;;;;;116482;1199;25145;-63
2023/01/06 06:36:46;;;;;;;;;6.00;6.00;;;;;;;;116524;1200;24863;-63
2023/01/06 06:39:15;;;;;;;;;6.00;5.00;;;;;;;;116469;1206;24892;-63
2023/01/06 06:41:43;;;;;;;;;7.00;5.00;;;;;;;;116486;1205;25308;-63
2023/01/06 06:44:11;;;;;;;;;5.00;5.00;;;;;;;;116368;1201;25208;-63
2023/01/06 06:46:40;;;;;;;;;6.50;5.00;;;;;;;;116481;1203;25473;-63
2023/01/06 06:49:08;;;;;;;;;5.50;5.00;;;;;;;;116400;1206;24726;-63
2023/01/06 06:51:36;;;;;;;;;7.00;5.00;;;;;;;;116515;1207;25334;-63
2023/01/06 06:54:04;;;;;;;;;5.00;5.00;;;;;;;;116521;1210;25411;-63
2023/01/06 06:56:33;;;;;;;;;5.00;5.00;;;;;;;;116466;1200;25632;-62
2023/01/06 06:59:01;;;;;;;;;7.00;5.00;;;;;;;;116421;1210;25013;-63
2023/01/06 07:01:31;;;;;;;;;6.00;5.00;;;;;;;;116434;1204;25352;-62
2023/01/06 07:03:59;;;;;;;;;;;;;;;;;;116487;1200;25430;-62
2023/01/06 07:06:28;;;;;;;;;6.00;5.67;;;;;;;;116397;1208;24951;-63
2023/01/06 07:08:56;;;;;;;;;6.75;5.00;;;;;;;;116387;1206;24686;-62
2023/01/06 07:11:25;;;;;;;;;7.00;5.50;;;;;;;;116493;1211;24746;-63
2023/01/06 07:13:53;;;;;;;;;5.00;5.00;;;;;;;;116490;1203;25556;-63
2023/01/06 07:16:24;;;;;;;;;7.00;6.00;;;;;;;;116444;1208;24916;-62
2023/01/06 07:18:52;;;;;;;;;4.00;2.00;;;;;;;;116418;1204;25763;-62
2023/01/06 07:21:20;;;;;;;;;5.00;4.00;;;;;;;;116481;1203;24865;-62
2023/01/06 07:23:49;;;;;;;;;6.50;4.50;;;;;;;;116518;1208;25571;-64
2023/01/06 07:26:17;;;;;;;;;12.00;6.00;;;;;;;;116491;1202;25569;-63
2023/01/06 07:28:45;;;;;;;;;7.00;6.00;;;;;;;;116453;1202;25745;-63
2023/01/06 07:31:13;;;;;;;;;5.00;5.00;;;;;;;;116482;1200;26166;-63
2023/01/06 07:33:42;;;;;;;;;6.33;5.00;;;;;;;;116442;1203;26166;-64
2023/01/06 07:36:10;;;;;;;;;4.00;4.00;;;;;;;;116417;1203;25065;-63
2023/01/06 07:38:38;;;;;;;;;3.00;3.00;;;;;;;;116436;1203;25631;-63
2023/01/06 07:41:07;;;;;;;;;8.00;6.00;;;;;;;;116372;1203;25267;-63
2023/01/06 07:43:35;;;;;;;;;6.00;5.00;;;;;;;;116491;1202;25510;-63
2023/01/06 07:46:03;;;;;;;;;6.00;6.00;;;;;;;;116497;1206;24819;-63
2023/01/06 07:48:32;;;;;;;;;8.67;5.00;;;;;;;;116398;1206;24930;-64
2023/01/06 07:51:02;;;;;;;;;4.50;3.00;;;;;;;;116484;1199;24945;-64
2023/01/06 07:53:31;;;;;;;;;4.00;4.00;;;;;;;;116507;1203;25211;-63
2023/01/06 07:55:59;;;;;;;;;4.00;4.00;;;;;;;;116377;1207;25306;-63
2023/01/06 07:58:28;;;;;;;;;3.00;3.00;;;;;;;;116398;1200;25057;-63
2023/01/06 08:00:56;;;;;;;;;6.00;5.00;;;;;;;;116495;1200;25554;-63
2023/01/06 08:03:24;;;;;;;;;5.50;4.50;;;;;;;;116510;1210;25068;-63
2023/01/06 08:05:52;;;;;;;;;4.00;3.00;;;;;;;;116368;1204;25461;-63
2023/01/06 08:08:21;;;;;;;;;6.50;5.00;;;;;;;;116423;1211;25619;-63
2023/01/06 08:10:49;;;;;;;;;4.50;4.00;;;;;;;;116532;1201;24881;-63
2023/01/06 08:13:17;;;;;;;;;5.00;3.50;;;;;;;;116404;1203;25089;-63
2023/01/06 08:15:50;;;;;;;;;3.00;3.00;;;;;;;;116487;1200;25684;-63
2023/01/06 08:18:19;;;;;;;;;5.00;5.00;;;;;;;;116478;1203;25355;-63
2023/01/06 08:20:47;;;;;;;;;7.00;3.50;;;;;;;;116394;1203;25570;-63
2023/01/06 08:23:15;;;;;;;;;5.50;4.00;;;;;;;;116384;1203;24855;-64
2023/01/06 08:25:44;;;;;;;;;6.00;5.00;;;;;;;;116601;1208;25719;-63
2023/01/06 08:28:12;;;;;;;;;3.00;3.00;;;;;;;;116500;1198;25165;-63
2023/01/06 08:30:41;;;;;;;;;7.00;6.00;;;;;;;;116368;1199;25157;-63
2023/01/06 08:33:10;;;;;;;;;5.33;3.67;;;;;;;;116410;1199;25538;-63
2023/01/06 08:35:38;;;;;;;;;3.00;3.00;;;;;;;;116491;1203;25081;-64
2023/01/06 08:38:06;;;;;;;;;5.00;3.00;;;;;;;;116506;1199;24908;-64
2023/01/06 08:40:35;;;;;;;;;6.33;4.33;;;;;;;;116486;1211;26502;-63
2023/01/06 08:43:03;;;;;;;;;3.00;3.00;;;;;;;;116473;1200;26004;-63
2023/01/06 08:45:31;;;;;;;;;5.00;4.00;;;;;;;;116510;1202;25773;-63
2023/01/06 08:47:59;;;;;;;;;5.00;5.00;;;;;;;;116478;1211;25110;-63
2023/01/06 08:50:28;;;;;;;;;3.00;2.67;;;;;;;;116414;1206;24857;-63
2023/01/06 08:52:56;;;;;;;;;3.00;3.00;;;;;;;;116496;1207;24839;-64
2023/01/06 08:55:24;;;;;;;;;5.00;4.00;;;;;;;;116483;1203;24702;-64
2023/01/06 08:57:53;;;;;;;;;3.50;3.50;;;;;;;;116527;1210;25385;-64
2023/01/06 09:00:22;;;;;;;;;3.00;3.00;;;;;;;;116493;1211;25140;-64
2023/01/06 09:02:51;;;;;;;;;4.00;4.00;;;;;;;;116403;1200;25710;-64
2023/01/06 09:05:19;;;;;;;;;3.50;2.00;;;;;;;;116393;1204;26399;-64
2023/01/06 09:07:49;;;;;;;;;4.00;4.00;;;;;;;;116403;1206;24923;-64
2023/01/06 09:10:18;;;;;;;;;4.50;4.50;;;;;;;;116388;1211;25547;-64
2023/01/06 09:12:47;;;;;;;;;8.00;4.00;;;;;;;;116431;1211;25022;-64
2023/01/06 09:15:15;;;;;;;;;;;;;;;;;;116392;1200;25269;-64
2023/01/06 09:17:43;;;;;;;;;4.00;4.00;;;;;;;;116491;1199;26097;-64
2023/01/06 09:20:12;;;;;;;;;4.00;3.00;;;;;;;;116472;1206;25549;-63
2023/01/06 09:22:40;;;;;;;;;5.75;3.50;;;;;;;;116503;1202;25005;-64
2023/01/06 09:25:08;;;;;;;;;7.00;5.00;;;;;;;;116519;1202;24856;-63
2023/01/06 09:27:37;;;;;;;;;4.00;3.00;;;;;;;;116478;1205;25575;-64
2023/01/06 09:30:07;;;;;;;;;6.00;4.00;;;;;;;;116391;1202;24855;-62
2023/01/06 09:32:35;;;;;;;;;4.50;3.25;;;;;;;;116380;1211;25733;-61
2023/01/06 09:35:03;;;;;;;;;7.00;5.00;;;;;;;;116501;1204;25883;-64
2023/01/06 09:37:32;;;;;;;;;3.00;3.00;;;;;;;;116486;1203;25615;-63
2023/01/06 09:40:00;;;;;;;;;4.00;4.00;;;;;;;;116495;1211;24948;-64
2023/01/06 09:42:56;;;;;;;;;7.00;6.00;;;;;;;;116531;1206;25150;-64
2023/01/06 09:45:47;;;;;;;;;5.00;5.00;;;;;;;;116417;1200;25482;-64
2023/01/06 09:48:21;;;;;;;;;6.00;6.00;;;;;;;;116418;1200;25089;-64
2023/01/06 09:50:59;;;;;;;;;6.00;5.00;;;;;;;;116395;1209;24862;-63
2023/01/06 09:53:39;;;;;;;;;7.00;5.00;;;;;;;;116401;1211;24986;-63
2023/01/06 09:56:12;;;;;;;;;6.00;4.00;;;;;;;;116506;1206;25055;-78
2023/01/06 09:59:14;;;;;;;;;4.00;4.00;;;;;;;;116419;1209;24953;-77
2023/01/06 10:01:47;;;;;;;;;7.00;5.50;;;;;;;;116398;1206;25629;-77
2023/01/06 10:04:22;;;;;;;;;7.00;6.00;;;;;;;;116380;1196;25733;-78
2023/01/06 10:07:06;;;;;;;;;11.00;4.00;;;;;;;;116485;1204;24830;-79
2023/01/06 10:09:53;;;;;;;;;4.00;4.00;;;;;;;;116355;1199;25063;-79
2023/01/06 10:12:56;;;;;;;;;6.00;4.00;;;;;;;;116428;1203;24874;-77
2023/01/06 10:15:43;;;;;;;;;3.50;3.00;;;;;;;;116251;1209;24847;-72
2023/01/06 10:18:50;;;;;;;;;6.50;5.00;;;;;;;;116493;1198;24698;-75
2023/01/06 10:21:35;;;;;;;;;8.00;4.00;;;;;;;;116278;1210;25411;-75
2023/01/06 10:24:06;;;;;;;;;7.50;5.00;;;;;;;;116447;1211;24793;-75
2023/01/06 10:26:58;;;;;;;;;5.50;4.00;;;;;;;;116508;1203;24797;-75
2023/01/06 10:29:33;;;;;;;;;9.00;5.00;;;;;;;;116402;1209;25421;-77
2023/01/06 10:32:02;;;;;;;;;5.00;4.00;;;;;;;;116383;1203;24919;-74
2023/01/06 10:34:32;;;;;;;;;4.00;4.00;;;;;;;;116373;1205;25289;-76
2023/01/06 10:37:09;;;;;;;;;8.00;7.00;;;;;;;;116337;1199;25331;-77
2023/01/06 10:39:39;;;;;;;;;8.00;6.00;;;;;;;;116403;1202;24877;-76
2023/01/06 10:43:05;;;;;;;;;5.00;4.00;;;;;;;;116373;1203;25729;-77
2023/01/06 10:45:13;;;;;;;;;9.50;8.50;;;;;;;;116487;1203;25369;-79
2023/01/06 10:47:42;;;;;;;;;8.00;6.00;;;;;;;;116415;1208;25781;-78
2023/01/06 10:50:15;;;;;;;;;10.00;8.00;;;;;;;;116390;1199;25727;-79
2023/01/06 10:52:45;;;;;;;;;8.75;6.00;;;;;;;;116374;1211;25264;-77
2023/01/06 10:55:37;;;;;;;;;6.00;6.00;;;;;;;;116388;1202;25332;-78
2023/01/06 10:58:24;;;;;;;;;11.00;7.00;;;;;;;;116426;1202;25116;-79
2023/01/06 11:00:55;;;;;;;;;22.00;19.00;;;;;;;;116427;1202;25348;-77
2023/01/06 11:03:24;;;;;;;;;31.50;27.00;;;;;;;;116488;1200;24974;-78
2023/01/06 11:06:08;;;;;;;;;16.00;13.00;;;;;;;;116392;1202;25618;-75
2023/01/06 11:08:37;;;;;;;;;12.00;11.00;;;;;;;;116397;1200;25134;-76
2023/01/06 11:11:11;;;;;;;;;11.00;7.50;;;;;;;;116476;1210;25350;-76
2023/01/06 11:13:56;;;;;;;;;9.50;7.00;;;;;;;;116382;1209;25517;-76
2023/01/06 11:16:29;;;;;;;;;9.00;7.00;;;;;;;;116421;1203;24958;-77
2023/01/06 11:19:04;;;;;;;;;11.00;7.00;;;;;;;;116381;1203;25229;-74
2023/01/06 11:21:43;;;;;;;;;6.50;5.50;;;;;;;;116422;1199;25658;-76
2023/01/06 11:24:19;;;;;;;;;7.50;5.00;;;;;;;;116431;1207;24884;-79
2023/01/06 11:26:56;;;;;;;;;12.00;6.00;;;;;;;;116366;1202;25589;-79
2023/01/06 11:29:26;;;;;;;;;9.50;4.50;;;;;;;;116388;1200;25163;-77
2023/01/06 11:31:56;;;;;;;;;8.00;4.00;;;;;;;;116362;1205;25677;-79
2023/01/06 11:34:27;;;;;;;;;7.00;5.00;;;;;;;;116390;1208;25366;-77
2023/01/06 11:36:57;;;;;;;;;3.00;3.00;;;;;;;;116387;1201;25095;-77
2023/01/06 11:39:25;;;;;;;;;6.00;4.00;;;;;;;;116334;1200;25048;-77
2023/01/06 11:41:55;;;;;;;;;4.00;3.50;;;;;;;;116354;1208;25052;-77
2023/01/06 11:44:31;;;;;;;;;5.00;3.00;;;;;;;;116360;1205;25607;-78
2023/01/06 11:47:02;;;;;;;;;3.00;3.00;;;;;;;;116390;1203;24819;-77
2023/01/06 11:49:38;;;;;;;;;7.00;2.00;;;;;;;;116383;1211;25261;-78
2023/01/06 11:52:29;;;;;;;;;7.00;4.00;;;;;;;;116434;1206;25511;-79
2023/01/06 11:55:06;;;;;;;;;3.00;3.00;;;;;;;;116482;1202;24908;-78
2023/01/06 11:57:49;;;;;;;;;2.50;2.50;;;;;;;;116502;1203;25465;-78
2023/01/06 12:00:37;;;;;;;;;6.67;3.33;;;;;;;;116498;1199;25512;-78
2023/01/06 12:03:25;;;;;;;;;8.00;2.00;;;;;;;;116381;1198;25487;-79
2023/01/06 12:05:59;;;;;;;;;2.00;2.00;;;;;;;;116385;1199;24955;-79
2023/01/06 12:08:39;;;;;;;;;5.00;4.00;;;;;;;;116413;1205;25277;-75
2023/01/06 12:11:42;;;;;;;;;6.00;3.00;;;;;;;;116409;1207;24998;-74
2023/01/06 12:14:14;;;;;;;;;3.00;3.00;;;;;;;;116443;1206;25066;-64
2023/01/06 12:17:05;;;;;;;;;3.00;3.00;;;;;;;;116406;1200;24866;-63
2023/01/06 12:19:35;;;;;;;;;2.50;2.00;;;;;;;;116479;1202;25052;-64
2023/01/06 12:22:05;;;;;;;;;3.00;3.00;;;;;;;;116388;1206;25060;-63
2023/01/06 12:24:35;;;;;;;;;5.00;3.33;;;;;;;;116425;1207;24702;-64
2023/01/06 12:27:05;;;;;;;;;5.00;4.00;;;;;;;;116375;1200;25229;-62
2023/01/06 12:29:34;;;;;;;;;4.00;4.00;;;;;;;;116414;1209;25336;-60
2023/01/06 12:32:23;;;;;;;;;7.00;3.00;;;;;;;;116391;1208;26404;-59
2023/01/06 12:34:59;;;;;;;;;9.00;5.00;;;;;;;;116388;1206;25566;-61
2023/01/06 12:37:40;;;;;;;;;5.00;5.00;;;;;;;;116474;1205;25602;-61
2023/01/06 12:40:38;;;;;;;;;4.00;4.00;;;;;;;;116423;1203;25625;-61
2023/01/06 12:43:12;;;;;;;;;7.00;5.00;;;;;;;;116391;1204;24842;-60
2023/01/06 12:45:45;;;;;;;;;7.00;4.50;;;;;;;;116506;1199;25202;-59
2023/01/06 12:48:35;;;;;;;;;7.00;5.00;;;;;;;;116488;1206;25381;-60
2023/01/06 12:51:26;;;;;;;;;7.00;5.00;;;;;;;;116476;1200;24882;-60
2023/01/06 12:54:28;;;;;;;;;9.00;6.00;;;;;;;;116400;1206;24956;-59
2023/01/06 12:57:19;;;;;;;;;6.00;5.00;;;;;;;;116426;1203;24707;-57
2023/01/06 12:59:56;;;;;;;;;6.00;2.50;;;;;;;;116372;1199;24760;-58
2023/01/06 13:02:30;;;;;;;;;4.00;2.00;;;;;;;;116420;1211;24810;-58
2023/01/06 13:05:16;;;;;;;;;19.00;9.50;;;;;;;;116357;1199;25599;-59
2023/01/06 13:08:06;;;;;;;;;12.50;7.00;;;;;;;;116389;1211;25642;-59
2023/01/06 13:11:12;;;;;;;;;15.00;9.00;;;;;;;;116420;1203;24668;-60
2023/01/06 13:14:00;;;;;;;;;25.00;13.00;;;;;;;;116391;1207;25616;-70
2023/01/06 13:16:28;;;;;;;;;8.50;7.00;;;;;;;;116488;1208;25181;-61
2023/01/06 13:19:38;;;;;;;;;16.50;9.00;;;;;;;;116499;1207;24719;-61
2023/01/06 13:22:11;;;;;;;;;15.50;6.50;;;;;;;;116455;1203;25544;-62
2023/01/06 13:25:14;;;;;;;;;15.00;9.00;;;;;;;;116403;1211;25129;-60
2023/01/06 13:28:03;;;;;;;;;17.00;9.00;;;;;;;;116471;1199;25448;-59
2023/01/06 13:30:41;;;;;;;;;25.00;12.00;;;;;;;;116490;1202;24767;-58
2023/01/06 13:33:41;;;;;;;;;16.50;12.00;;;;;;;;116497;1202;25443;-60
2023/01/06 13:36:37;;;;;;;;;13.00;11.00;;;;;;;;116486;1197;25169;-60
2023/01/06 13:39:16;;;;;;;;;20.00;12.00;;;;;;;;116479;1203;25614;-58
2023/01/06 13:41:49;;;;;;;;;19.33;10.33;;;;;;;;116515;1206;25991;-58
2023/01/06 13:44:22;;;;;;;;;21.50;11.50;;;;;;;;116388;1203;25087;-57
2023/01/06 13:46:52;;;;;;;;;19.50;9.50;;;;;;;;116482;1202;25321;-58
2023/01/06 13:49:21;;;;;;;;;15.50;7.50;;;;;;;;116394;1211;25132;-57
2023/01/06 13:51:49;;;;;;;;;15.00;9.00;;;;;;;;116411;1202;25577;-58
2023/01/06 13:54:39;;;;;;;;;15.00;10.00;;;;;;;;116519;1202;25566;-57
2023/01/06 13:57:38;;;;;;;;;19.00;9.00;;;;;;;;116495;1199;25149;-58
2023/01/06 14:00:06;;;;;;;;;16.00;9.00;;;;;;;;116428;1200;25065;-57
2023/01/06 14:02:36;;;;;;;;;17.00;12.00;;;;;;;;116500;1203;25630;-57
2023/01/06 14:05:26;;;;;;;;;;;;;;;;;;116434;1204;25629;-57
2023/01/06 14:08:00;;;;;;;;;14.50;8.50;;;;;;;;116307;1211;24908;-57
2023/01/06 14:10:37;;;;;;;;;16.00;10.00;;;;;;;;116399;1203;24901;-57
2023/01/06 14:13:20;;;;;;;;;16.50;10.00;;;;;;;;116366;1208;25569;-57
2023/01/06 14:15:54;;;;;;;;;9.00;7.00;;;;;;;;116410;1199;24801;-57
2023/01/06 14:18:39;;;;;;;;;18.00;10.00;;;;;;;;116382;1211;25298;-60
2023/01/06 14:21:11;;;;;;;;;16.00;8.00;;;;;;;;116397;1210;25158;-60
2023/01/06 14:23:52;;;;;;;;;14.00;10.00;;;;;;;;116405;1211;26238;-60
2023/01/06 14:26:41;;;;;;;;;14.00;14.00;;;;;;;;116417;1208;24797;-60
2023/01/06 14:29:47;;;;;;;;;17.50;9.00;;;;;;;;116496;1203;25551;-60
2023/01/06 14:32:16;;;;;;;;;18.50;10.50;;;;;;;;116497;1206;25175;-57
2023/01/06 14:34:59;;;;;;;;;12.50;10.50;;;;;;;;116483;1206;26056;-60
2023/01/06 14:38:05;;;;;;;;;10.00;8.00;;;;;;;;116396;1204;25521;-59
2023/01/06 14:40:46;;;;;;;;;21.00;8.00;;;;;;;;116462;1203;25007;-59
2023/01/06 14:43:45;;;;;;;;;13.00;8.00;;;;;;;;116488;1210;26164;-59
2023/01/06 14:46:18;;;;;;;;;14.00;10.00;;;;;;;;116488;1202;25358;-58
2023/01/06 14:48:51;;;;;;;;;12.00;10.00;;;;;;;;116800;1197;25550;-59
2023/01/06 14:51:20;;;;;;;;;11.00;10.25;;;;;;;;116385;1210;25150;-58
2023/01/06 14:53:55;;;;;;;;;35.00;25.00;;;;;;;;116380;1202;25417;-60
2023/01/06 14:56:25;;;;;;;;;19.50;16.00;;;;;;;;116395;1209;24966;-61
2023/01/06 14:59:11;;;;;;;;;21.00;19.00;;;;;;;;116522;1198;25191;-60
2023/01/06 15:01:41;;;;;;;;;22.00;19.00;;;;;;;;116413;1206;25242;-60
2023/01/06 15:04:25;;;;;;;;;21.00;17.00;;;;;;;;116388;1199;25179;-60
2023/01/06 15:07:14;;;;;;;;;17.00;17.00;;;;;;;;116400;1199;25203;-60
2023/01/06 15:09:44;;;;;;;;;28.00;21.00;;;;;;;;116496;1197;24797;-60
2023/01/06 15:12:28;;;;;;;;;;;;;;;;;;116485;1202;25618;-58
2023/01/06 15:15:14;;;;;;;;;28.00;24.00;;;;;;;;116372;1195;25521;-57